Time;durP1;ratioP1;P1;durP2;ratioP2;P2;SDS_P1;SDS_P2;PMS_P1;PMS_P2;Temp;Humidity;BMP_temperature;BMP_pressure;BME280_temperature;BME280_humidity;BME280_pressure;Samples;Min_cycle;Max_cycle;Signal;HPM_P1;HPM_P2
2022/12/30 08:05:22;;;;;;;20.37;9.18;;;;;;;0.56;100.00;101206.67;1757207;77;80627;-92
2022/12/30 08:08:07;;;;;;;25.02;10.03;;;;;;;0.66;100.00;101212.53;1644385;85;21176;-93
2022/12/30 08:10:56;;;;;;;31.15;11.38;;;;;;;0.77;100.00;101205.28;1646085;83;21127;-93
2022/12/30 08:13:42;;;;;;;21.60;8.08;;;;;;;0.90;100.00;101205.06;1638293;85;21174;-93
2022/12/30 08:16:27;;;;;;;18.25;8.08;;;;;;;1.01;100.00;101206.66;1632041;84;21140;-94
2022/12/30 08:19:12;;;;;;;17.55;7.72;;;;;;;1.14;100.00;101206.42;1635755;86;21904;-92
2022/12/30 08:21:57;;;;;;;18.60;7.90;;;;;;;1.23;100.00;101203.37;1630507;85;21039;-94
2022/12/30 08:24:43;;;;;;;14.85;7.40;;;;;;;1.35;100.00;101206.34;1629147;86;21081;-92
2022/12/30 08:27:28;;;;;;;19.87;7.83;;;;;;;1.50;100.00;101211.58;1642482;84;21147;-92
2022/12/30 08:30:13;;;;;;;16.42;7.92;;;;;;;1.60;100.00;101213.38;1633305;84;21198;-91
2022/12/30 08:32:57;;;;;;;16.55;8.40;;;;;;;1.70;100.00;101216.52;1646962;84;21151;-90
2022/12/30 08:35:41;;;;;;;13.98;7.30;;;;;;;1.81;100.00;101216.47;1631368;86;21074;-91
2022/12/30 08:38:26;;;;;;;16.93;7.37;;;;;;;1.89;100.00;101215.45;1619417;85;21507;-92
2022/12/30 08:41:18;;;;;;;15.00;7.35;;;;;;;1.98;100.00;101216.94;1575041;88;21069;-90
2022/12/30 08:44:03;;;;;;;15.15;8.00;;;;;;;2.12;100.00;101221.30;1583835;89;21194;-91
2022/12/30 08:46:48;;;;;;;16.42;8.13;;;;;;;2.25;100.00;101230.45;1624597;85;21636;-90
2022/12/30 08:49:33;;;;;;;19.15;8.75;;;;;;;2.36;100.00;101219.89;1637583;85;21123;-90
2022/12/30 08:52:18;;;;;;;18.23;8.15;;;;;;;2.43;100.00;101222.60;1640892;85;21647;-91
2022/12/30 08:55:03;;;;;;;16.35;8.78;;;;;;;2.50;100.00;101219.39;1575505;88;21652;-90
2022/12/30 08:57:48;;;;;;;20.08;10.13;;;;;;;2.56;100.00;101216.37;1604961;86;21601;-90
2022/12/30 09:00:32;;;;;;;16.62;7.28;;;;;;;2.59;100.00;101224.05;1576149;88;21189;-91
2022/12/30 09:03:17;;;;;;;15.98;7.37;;;;;;;2.64;100.00;101226.95;1562268;87;21080;-92
2022/12/30 09:06:02;;;;;;;13.93;7.17;;;;;;;2.70;100.00;101225.31;1606748;87;21042;-91
2022/12/30 09:08:47;;;;;;;13.95;6.95;;;;;;;2.72;100.00;101210.56;1618911;85;21060;-92
2022/12/30 09:11:33;;;;;;;15.80;7.03;;;;;;;2.78;100.00;101205.66;1645973;84;21574;-91
2022/12/30 09:14:18;;;;;;;16.07;7.95;;;;;;;2.89;100.00;101196.61;1564050;89;21755;-92
2022/12/30 09:17:03;;;;;;;16.20;7.55;;;;;;;2.91;100.00;101194.02;1630403;86;21101;-91
2022/12/30 09:19:47;;;;;;;15.35;6.90;;;;;;;3.03;100.00;101193.38;1639094;85;21188;-91
2022/12/30 09:22:32;;;;;;;15.95;7.45;;;;;;;3.08;100.00;101188.17;1596842;88;21058;-90
2022/12/30 09:25:17;;;;;;;18.05;7.78;;;;;;;3.09;100.00;101184.42;1563769;87;21106;-91
2022/12/30 09:28:02;;;;;;;16.77;7.75;;;;;;;3.13;100.00;101184.31;1585164;88;21084;-90
2022/12/30 09:30:49;;;;;;;17.17;7.67;;;;;;;3.21;100.00;101178.67;1561121;88;21115;-91
2022/12/30 09:33:34;;;;;;;13.43;6.95;;;;;;;3.16;100.00;101181.19;1586452;88;21080;-92
2022/12/30 09:36:19;;;;;;;16.85;6.62;;;;;;;3.27;100.00;101175.14;1552343;87;21686;-91
2022/12/30 09:39:03;;;;;;;14.38;7.33;;;;;;;3.41;100.00;101176.75;1601895;87;21129;-90
2022/12/30 09:45:12;;;;;;;19.52;8.08;;;;;;;3.45;100.00;101169.03;1634313;85;21149;-90
2022/12/30 09:48:01;;;;;;;15.10;6.53;;;;;;;3.54;100.00;101156.12;1625887;85;22346;-90
2022/12/30 09:50:53;;;;;;;16.23;7.30;;;;;;;3.63;100.00;101155.63;1628809;85;21073;-90
2022/12/30 09:53:54;;;;;;;18.40;7.40;;;;;;;3.70;100.00;101154.25;1556660;89;21511;-90
2022/12/30 09:56:42;;;;;;;15.43;6.85;;;;;;;3.79;100.00;101148.08;1593255;87;21528;-91
2022/12/30 09:59:32;;;;;;;14.87;6.78;;;;;;;3.92;100.00;101151.21;1636409;84;21050;-90
2022/12/30 10:02:21;;;;;;;15.58;6.65;;;;;;;3.97;100.00;101145.98;1602714;87;20949;-89
2022/12/30 10:05:12;;;;;;;14.45;7.05;;;;;;;4.03;100.00;101149.14;1586537;86;21046;-90
2022/12/30 10:08:05;;;;;;;15.88;6.90;;;;;;;4.07;100.00;101139.55;1626229;85;21067;-90
2022/12/30 10:10:58;;;;;;;15.15;6.83;;;;;;;4.14;100.00;101127.34;1628084;85;21507;-90
2022/12/30 10:13:51;;;;;;;16.17;7.15;;;;;;;4.18;100.00;101129.39;1642662;84;22380;-90
2022/12/30 10:17:02;;;;;;;15.45;7.60;;;;;;;4.21;100.00;101123.53;1598550;87;21122;-90
2022/12/30 10:20:13;;;;;;;14.47;7.12;;;;;;;4.21;100.00;101115.95;1577847;88;21945;-90
2022/12/30 10:23:25;;;;;;;16.60;6.87;;;;;;;4.24;100.00;101110.91;1609962;86;21075;-91
2022/12/30 10:26:21;;;;;;;15.38;7.35;;;;;;;4.29;100.00;101107.02;1640353;84;21100;-91
2022/12/30 10:29:24;;;;;;;13.20;6.67;;;;;;;4.30;100.00;101101.92;1626443;85;21021;-92
2022/12/30 10:32:21;;;;;;;14.87;7.28;;;;;;;4.34;100.00;101086.59;1623577;85;21051;-90
2022/12/30 10:35:12;;;;;;;14.78;7.30;;;;;;;4.37;100.00;101095.61;1612257;85;21595;-91
2022/12/30 10:38:10;;;;;;;13.90;7.10;;;;;;;4.40;100.00;101105.98;1616410;87;21049;-90
2022/12/30 10:41:22;;;;;;;13.72;7.22;;;;;;;4.41;100.00;101103.06;1635587;85;21138;-92
2022/12/30 10:44:24;;;;;;;14.20;6.47;;;;;;;4.46;100.00;101091.05;1639345;85;21485;-91
2022/12/30 10:47:23;;;;;;;18.73;7.80;;;;;;;4.59;100.00;101083.84;1637594;84;21083;-90
2022/12/30 10:50:32;;;;;;;13.80;7.55;;;;;;;4.69;100.00;101080.91;1639609;85;21476;-91
2022/12/30 10:53:23;;;;;;;17.45;7.47;;;;;;;4.77;100.00;101076.25;1603424;86;21234;-91
2022/12/30 10:56:23;;;;;;;13.18;6.47;;;;;;;4.89;100.00;101070.38;1647307;84;21037;-92
2022/12/30 10:59:11;;;;;;;14.55;6.50;;;;;;;4.95;100.00;101067.60;1592581;88;21569;-91
2022/12/30 11:02:03;;;;;;;13.58;6.42;;;;;;;5.04;100.00;101066.75;1586824;88;21085;-91
2022/12/30 11:04:50;;;;;;;12.35;6.10;;;;;;;5.07;100.00;101059.55;1620633;85;21561;-91
2022/12/30 11:07:34;;;;;;;11.40;6.10;;;;;;;5.15;100.00;101062.47;1627494;86;21026;-91
2022/12/30 11:10:20;;;;;;;12.28;6.25;;;;;;;5.12;100.00;101065.11;1606693;85;21188;-91
2022/12/30 11:16:50;;;;;;;16.82;7.12;;;;;;;4.97;100.00;101064.68;1555119;86;21138;-90
2022/12/30 11:19:25;;;;;;;15.58;6.62;;;;;;;4.95;100.00;101055.95;1636377;85;21064;-90
2022/12/30 11:22:11;;;;;;;13.13;6.80;;;;;;;4.97;100.00;101059.27;1628222;86;21139;-92
2022/12/30 11:25:03;;;;;;;15.25;7.03;;;;;;;5.04;100.00;101045.61;1633882;86;21075;-91
2022/12/30 11:27:50;;;;;;;15.05;6.67;;;;;;;5.07;100.00;101050.06;1635639;84;21084;-91
2022/12/30 11:30:39;;;;;;;15.18;6.40;;;;;;;5.05;100.00;101046.75;1645304;84;21022;-92
2022/12/30 11:33:46;;;;;;;12.35;6.35;;;;;;;5.03;100.00;101046.15;1608287;85;21084;-91
2022/12/30 11:36:32;;;;;;;11.75;6.17;;;;;;;5.12;100.00;101043.43;1613612;85;21094;-92
2022/12/30 11:39:29;;;;;;;15.78;6.65;;;;;;;5.26;100.00;101041.89;1626933;85;21034;-92
2022/12/30 11:42:30;;;;;;;14.80;6.75;;;;;;;5.24;100.00;101052.12;1580493;87;21116;-92
2022/12/30 11:45:19;;;;;;;13.65;6.75;;;;;;;5.27;100.00;101047.63;1621107;85;21641;-92
2022/12/30 11:48:04;;;;;;;14.05;7.25;;;;;;;5.24;100.00;101043.99;1610475;87;20985;-92
2022/12/30 11:50:52;;;;;;;13.43;6.62;;;;;;;5.20;100.00;101040.11;1627534;85;21135;-90
2022/12/30 11:53:37;;;;;;;12.50;5.80;;;;;;;5.12;100.00;101036.66;1613472;85;21087;-91
2022/12/30 11:56:23;;;;;;;14.07;6.47;;;;;;;5.06;100.00;101036.73;1634652;86;21101;-93
2022/12/30 14:05:04;;;;;;;24.45;7.80;;;;;;;1.02;100.00;101128.95;1834233;75;28932;-90
2022/12/30 14:07:47;;;;;;;16.30;7.50;;;;;;;0.93;100.00;101132.00;1790830;77;21049;-93
2022/12/30 14:11:04;;;;;;;18.55;8.93;;;;;;;0.94;100.00;101139.03;1803835;77;21935;-90
2022/12/30 14:14:20;;;;;;;18.10;8.00;;;;;;;0.96;100.00;101143.70;1802339;77;20967;-90
2022/12/30 14:17:14;;;;;;;15.53;6.85;;;;;;;0.90;100.00;101131.06;1782251;78;21650;-93
2022/12/30 14:20:27;;;;;;;17.00;7.58;;;;;;;0.79;100.00;101134.63;1786433;78;20985;-90
2022/12/30 14:24:03;;;;;;;;;;;;;;;;;;;;;
2022/12/30 14:26:46;;;;;;;23.65;6.95;;;;;;;0.78;100.00;101128.09;1769307;78;20256;-93
2022/12/30 14:29:45;;;;;;;11.45;6.08;;;;;;;0.83;100.00;101134.53;1737836;78;21011;-93
2022/12/30 14:32:41;;;;;;;14.70;6.87;;;;;;;0.82;100.00;101127.50;1791881;77;21026;-93
2022/12/30 14:35:28;;;;;;;17.07;7.90;;;;;;;0.75;100.00;101137.91;1754069;78;21801;-92
2022/12/30 14:38:34;;;;;;;21.07;9.88;;;;;;;0.70;100.00;101131.77;1790718;77;20982;-92
2022/12/30 14:41:37;;;;;;;22.75;9.73;;;;;;;0.61;100.00;101141.02;1745899;80;21775;-90
2022/12/30 14:44:23;;;;;;;;;;;;;;;0.52;100.00;101152.94;1806136;78;21465;-90
2022/12/30 14:47:09;;;;;;;18.95;8.48;;;;;;;0.50;100.00;101170.64;1793648;78;20153;-90
2022/12/30 14:49:56;;;;;;;30.30;14.13;;;;;;;0.45;100.00;101166.88;1735319;80;21032;-91
2022/12/30 14:52:49;;;;;;;39.15;19.85;;;;;;;0.42;100.00;101166.73;1783265;77;21118;-91
2022/12/30 14:55:43;;;;;;;36.58;19.82;;;;;;;0.38;100.00;101167.64;1799604;78;21034;-91
2022/12/30 14:58:28;;;;;;;36.95;20.12;;;;;;;0.30;100.00;101165.63;1778051;78;21037;-91
2022/12/30 15:01:14;;;;;;;36.45;16.52;;;;;;;0.24;100.00;101153.77;1784023;78;21003;-91
2022/12/30 15:04:14;;;;;;;28.40;13.85;;;;;;;0.25;100.00;101158.63;1754243;79;21018;-90
2022/12/30 15:06:59;;;;;;;27.85;12.55;;;;;;;0.26;100.00;101159.78;1694426;83;21062;-91
2022/12/30 15:09:45;;;;;;;22.30;12.40;;;;;;;0.33;100.00;101159.33;1725096;80;20994;-90
2022/12/30 15:12:31;;;;;;;26.70;13.75;;;;;;;0.37;100.00;101155.23;1746104;81;21498;-92
2022/12/30 15:15:26;;;;;;;23.73;12.03;;;;;;;0.40;100.00;101160.22;1757767;81;20995;-93
2022/12/30 15:18:34;;;;;;;22.10;11.70;;;;;;;0.45;100.00;101167.70;1763377;78;21435;-92
2022/12/30 15:21:33;;;;;;;21.57;10.78;;;;;;;0.51;100.00;101172.81;1756430;78;20986;-91
2022/12/30 15:24:19;;;;;;;23.80;10.88;;;;;;;0.55;100.00;101177.61;1746366;79;20991;-91
2022/12/30 15:27:04;;;;;;;22.60;10.90;;;;;;;0.59;100.00;101171.30;1692005;81;21417;-90
2022/12/30 15:29:51;;;;;;;21.10;11.33;;;;;;;0.61;100.00;101170.08;1703423;82;21647;-92
2022/12/30 15:32:37;;;;;;;19.35;9.40;;;;;;;0.63;100.00;101168.03;1709844;80;21018;-92
2022/12/30 15:35:25;;;;;;;22.80;10.43;;;;;;;0.64;100.00;101161.64;1687868;83;21090;-91
2022/12/30 15:38:15;;;;;;;20.60;10.78;;;;;;;0.69;100.00;101157.52;1716277;81;21492;-92
2022/12/30 15:41:01;;;;;;;24.05;11.93;;;;;;;0.71;100.00;101162.19;1768184;80;21027;-90
2022/12/30 15:43:47;;;;;;;23.50;11.38;;;;;;;0.75;100.00;101161.60;1757285;78;21373;-93
2022/12/30 15:46:40;;;;;;;29.18;14.70;;;;;;;0.82;100.00;101166.52;1752302;81;20992;-92
2022/12/30 15:49:28;;;;;;;45.08;20.57;;;;;;;0.85;100.00;101159.38;1749943;80;21041;-92
2022/12/30 15:52:13;;;;;;;33.10;14.70;;;;;;;0.90;100.00;101151.23;1741713;81;20991;-91
2022/12/30 15:54:59;;;;;;;30.80;11.60;;;;;;;0.89;100.00;101152.25;1741292;80;21101;-93
2022/12/30 15:57:44;;;;;;;25.00;11.40;;;;;;;0.94;100.00;101150.66;1702325;82;21038;-91
2022/12/30 16:00:29;;;;;;;23.52;11.57;;;;;;;0.97;100.00;101152.11;1687219;83;21417;-93
2022/12/30 16:03:14;;;;;;;18.55;9.03;;;;;;;1.05;100.00;101158.67;1702696;80;21019;-94
2022/12/30 16:05:59;;;;;;;17.23;9.10;;;;;;;1.15;100.00;101157.78;1706918;81;21009;-93
2022/12/30 16:08:44;;;;;;;16.27;8.33;;;;;;;1.24;100.00;101161.15;1800934;78;20999;-91
2022/12/30 16:11:34;;;;;;;19.62;9.78;;;;;;;1.34;100.00;101167.52;1713435;81;20995;-92
2022/12/30 16:14:39;;;;;;;21.85;9.63;;;;;;;1.46;100.00;101174.81;1798822;78;21033;-92
2022/12/30 16:17:33;;;;;;;22.85;8.65;;;;;;;1.58;100.00;101162.91;1791823;79;21085;-94
2022/12/30 16:20:31;;;;;;;17.75;9.03;;;;;;;1.66;100.00;101172.17;1705366;82;21016;-92
2022/12/30 16:23:20;;;;;;;19.55;9.58;;;;;;;1.68;100.00;101173.30;1710670;81;21070;-91
2022/12/30 16:26:24;;;;;;;20.82;9.60;;;;;;;1.71;100.00;101170.22;1795654;77;20998;-91
2022/12/30 16:29:40;;;;;;;19.95;8.03;;;;;;;1.70;100.00;101161.81;1786434;78;21050;-93
2022/12/30 16:32:28;;;;;;;19.57;8.78;;;;;;;1.69;100.00;101165.03;1719366;80;21042;-93
2022/12/30 16:35:17;;;;;;;16.07;6.72;;;;;;;1.75;100.00;101165.25;1781631;78;21026;-93
2022/12/30 16:38:08;;;;;;;20.97;9.35;;;;;;;1.91;100.00;101164.88;1785205;78;20972;-92
2022/12/30 16:41:05;;;;;;;;;;;;;;;;;;;;;
2022/12/30 16:43:55;;;;;;;16.97;8.30;;;;;;;1.98;100.00;101160.33;1713451;79;20990;-91
2022/12/30 16:46:43;;;;;;;20.17;9.75;;;;;;;1.98;100.00;101152.24;1796555;79;21067;-92
2022/12/30 16:49:39;;;;;;;18.15;9.25;;;;;;;2.04;100.00;101150.06;1792504;77;21720;-90
2022/12/30 16:52:23;;;;;;;16.75;7.85;;;;;;;2.06;100.00;101152.56;1782586;77;21141;-92
2022/12/30 16:55:28;;;;;;;20.70;8.93;;;;;;;2.09;100.00;101148.92;1764286;79;20998;-92
2022/12/30 16:58:12;;;;;;;20.75;9.48;;;;;;;2.13;100.00;101147.48;1784283;78;21484;-93
2022/12/30 17:01:11;;;;;;;16.60;7.75;;;;;;;2.14;100.00;101151.00;1792035;78;20994;-93
2022/12/30 17:04:06;;;;;;;17.73;8.18;;;;;;;2.18;100.00;101137.92;1726472;81;21468;-92
2022/12/30 17:06:53;;;;;;;18.10;8.85;;;;;;;2.27;100.00;101142.08;1737481;81;21000;-92
2022/12/30 17:12:44;;;;;;;16.48;8.20;;;;;;;2.25;100.00;101129.31;1704045;80;21415;-91
2022/12/30 17:15:29;;;;;;;20.72;9.00;;;;;;;2.29;100.00;101130.58;1712312;82;21017;-91
2022/12/30 17:18:14;;;;;;;20.05;9.63;;;;;;;2.39;100.00;101136.38;1761140;79;20975;-92
2022/12/30 17:21:02;;;;;;;21.50;9.75;;;;;;;2.22;100.00;101146.75;1731156;80;21467;-91
2022/12/30 17:23:50;;;;;;;16.15;8.45;;;;;;;2.31;100.00;101153.59;1797326;77;21053;-93
2022/12/30 17:26:35;;;;;;;23.22;11.10;;;;;;;2.34;100.00;101153.70;1792249;78;21030;-91
2022/12/30 17:29:19;;;;;;;25.08;11.88;;;;;;;2.35;100.00;101187.75;1797138;78;20983;-92
2022/12/30 17:32:05;;;;;;;26.23;13.88;;;;;;;2.35;100.00;101198.54;1801028;77;21049;-92
2022/12/30 17:34:50;;;;;;;33.15;15.35;;;;;;;2.34;100.00;101202.25;1794878;78;21505;-92
2022/12/30 17:37:35;;;;;;;31.05;16.12;;;;;;;2.32;100.00;101205.14;1752546;80;21034;-92
2022/12/30 17:40:20;;;;;;;22.07;11.53;;;;;;;2.36;100.00;101194.27;1797464;78;21097;-92
2022/12/30 17:43:06;;;;;;;19.65;8.20;;;;;;;2.42;100.00;101191.25;1802223;78;20987;-90
2022/12/30 17:45:52;;;;;;;16.40;8.38;;;;;;;2.36;100.00;101184.83;1787287;77;21544;-92
2022/12/30 17:48:36;;;;;;;21.12;9.35;;;;;;;2.41;100.00;101186.08;1801246;77;21004;-94
2022/12/30 17:51:24;;;;;;;19.37;9.63;;;;;;;2.42;100.00;101193.95;1797309;78;21028;-93
2022/12/30 17:54:08;;;;;;;19.12;8.95;;;;;;;2.43;100.00;101198.33;1794182;77;21018;-91
2022/12/30 17:56:53;;;;;;;19.55;9.33;;;;;;;2.43;100.00;101187.53;1807545;77;21402;-92
2022/12/30 20:06:21;;;;;;;32.53;13.35;;;;;;;0.29;100.00;101218.53;1843734;75;28937;-90
2022/12/30 20:09:09;;;;;;;48.73;20.97;;;;;;;0.32;100.00;101228.92;1820340;77;21006;-90
2022/12/30 20:11:53;;;;;;;36.10;15.30;;;;;;;0.48;100.00;101239.09;1829527;76;21000;-91
2022/12/30 20:14:40;;;;;;;24.90;11.73;;;;;;;0.62;100.00;101242.22;1807423;77;21073;-89
2022/12/30 20:17:25;;;;;;;23.90;11.35;;;;;;;0.72;100.00;101238.67;1724066;80;21044;-90
2022/12/30 20:20:10;;;;;;;21.23;10.65;;;;;;;0.92;100.00;101237.47;1725912;80;20983;-91
2022/12/30 20:22:55;;;;;;;17.52;9.70;;;;;;;1.03;100.00;101234.74;1736374;81;21103;-90
2022/12/30 20:25:40;;;;;;;20.62;10.15;;;;;;;1.13;100.00;101239.25;1739151;81;21006;-90
2022/12/30 20:28:25;;;;;;;22.67;11.22;;;;;;;1.21;100.00;101245.84;1756151;80;21031;-90
2022/12/30 20:31:14;;;;;;;20.52;10.30;;;;;;;1.32;100.00;101252.52;1754520;80;21005;-89
2022/12/30 20:33:59;;;;;;;20.10;10.10;;;;;;;1.43;100.00;101259.20;1724367;81;21405;-90
2022/12/30 20:36:44;;;;;;;22.20;10.70;;;;;;;1.46;100.00;101265.56;1717640;82;21040;-90
2022/12/30 20:39:30;;;;;;;24.20;10.08;;;;;;;1.42;100.00;101262.94;1739637;80;21023;-89
2022/12/30 20:42:15;;;;;;;23.12;10.23;;;;;;;1.53;100.00;101264.22;1798878;78;21046;-89
2022/12/30 20:45:00;;;;;;;19.75;9.58;;;;;;;1.52;100.00;101266.09;1716748;81;21491;-91
2022/12/30 20:47:45;;;;;;;23.07;10.38;;;;;;;1.55;100.00;101268.38;1799397;78;21014;-90
2022/12/30 20:50:30;;;;;;;26.90;10.63;;;;;;;1.52;100.00;101266.09;1744762;80;20993;-91
2022/12/30 20:53:16;;;;;;;24.27;10.78;;;;;;;1.52;100.00;101255.84;1715583;81;21071;-90
2022/12/30 20:56:06;;;;;;;25.68;11.43;;;;;;;1.31;100.00;101260.30;1728562;81;21107;-90
2022/12/30 20:58:59;;;;;;;21.42;9.65;;;;;;;1.26;100.00;101273.01;1766962;78;20935;-91
2022/12/30 21:01:44;;;;;;;21.15;10.68;;;;;;;1.22;100.00;101279.80;1720042;81;21050;-91
2022/12/30 21:04:29;;;;;;;24.30;12.95;;;;;;;1.32;100.00;101292.09;1736581;81;20992;-89
2022/12/30 21:07:14;;;;;;;19.90;10.63;;;;;;;1.33;100.00;101285.66;1733957;81;20988;-89
2022/12/30 21:09:59;;;;;;;23.98;10.15;;;;;;;1.30;100.00;101285.55;1710532;82;21491;-91
2022/12/30 21:12:45;;;;;;;17.55;9.40;;;;;;;1.23;100.00;101296.78;1705070;81;21020;-89
2022/12/30 21:15:29;;;;;;;24.47;11.10;;;;;;;1.28;100.00;101291.12;1717622;81;21060;-90
2022/12/30 21:18:14;;;;;;;20.95;9.88;;;;;;;1.13;100.00;101275.59;1727170;81;21000;-91
2022/12/30 21:20:59;;;;;;;22.52;10.32;;;;;;;1.05;100.00;101281.14;1724948;81;21507;-92
2022/12/30 21:23:44;;;;;;;16.50;8.53;;;;;;;0.98;100.00;101281.59;1737422;80;21056;-91
2022/12/30 21:26:32;;;;;;;17.02;8.73;;;;;;;0.89;100.00;101282.28;1704155;81;21103;-90
2022/12/30 21:29:16;;;;;;;26.57;10.10;;;;;;;0.97;100.00;101287.50;1697892;83;21065;-90
2022/12/30 21:32:01;;;;;;;17.60;9.10;;;;;;;0.96;100.00;101283.65;1735898;82;21012;-90
2022/12/30 21:34:45;;;;;;;24.10;10.13;;;;;;;0.88;100.00;101283.80;1759362;81;21795;-91
2022/12/30 21:37:32;;;;;;;21.60;10.00;;;;;;;0.82;100.00;101288.11;1762337;80;20986;-90
2022/12/30 22:04:41;;;;;;;24.23;12.60;;;;;;;1.35;100.00;101301.94;1748954;81;20947;-89
2022/12/30 22:07:26;;;;;;;26.75;11.70;;;;;;;1.33;100.00;101296.44;1750129;81;21438;-89
2022/12/30 22:10:13;;;;;;;25.12;12.45;;;;;;;1.35;100.00;101297.08;1762977;81;21018;-89
2022/12/30 22:12:58;;;;;;;27.67;11.10;;;;;;;1.35;100.00;101299.25;1757553;80;20963;-89
2022/12/30 22:15:44;;;;;;;28.20;12.55;;;;;;;1.32;100.00;101305.55;1738476;81;20934;-88
2022/12/30 22:18:29;;;;;;;30.00;12.58;;;;;;;1.26;100.00;101305.31;1730396;82;20997;-88
2022/12/30 22:21:14;;;;;;;21.55;11.15;;;;;;;1.31;100.00;101311.95;1732415;82;21480;-89
2022/12/30 22:23:58;;;;;;;20.12;10.60;;;;;;;1.29;100.00;101323.77;1735179;81;20963;-89
2022/12/30 22:26:43;;;;;;;26.17;13.30;;;;;;;1.32;100.00;101319.02;1752765;81;21014;-88
2022/12/30 22:29:28;;;;;;;28.25;13.75;;;;;;;1.24;100.00;101320.83;1700017;83;21025;-89
2022/12/30 22:32:13;;;;;;;23.65;12.58;;;;;;;1.19;100.00;101321.11;1701593;82;20982;-89
2022/12/30 22:34:58;;;;;;;25.65;12.13;;;;;;;1.17;100.00;101330.72;1690698;84;21067;-90
2022/12/30 22:37:43;;;;;;;23.30;11.93;;;;;;;1.27;100.00;101324.47;1715691;82;21041;-89
2022/12/30 22:40:28;;;;;;;23.05;11.70;;;;;;;1.34;100.00;101314.27;1739130;80;21095;-89
2022/12/30 22:43:13;;;;;;;25.50;11.25;;;;;;;1.39;100.00;101315.34;1746261;81;20990;-90
2022/12/30 22:46:04;;;;;;;28.42;12.70;;;;;;;1.47;100.00;101315.70;1731490;81;20974;-91
2022/12/30 22:48:49;;;;;;;28.87;12.80;;;;;;;1.54;100.00;101323.30;1732149;81;20978;-89
2022/12/30 22:51:34;;;;;;;21.87;11.00;;;;;;;1.67;100.00;101315.28;1738296;80;20966;-90
2022/12/30 22:54:19;;;;;;;26.33;12.50;;;;;;;1.74;100.00;101319.37;1763070;81;20972;-90
2022/12/30 22:57:04;;;;;;;22.67;10.82;;;;;;;1.81;100.00;101331.02;1755262;80;21030;-90
2022/12/30 22:59:48;;;;;;;24.57;11.40;;;;;;;2.08;100.00;101325.22;1760410;81;20947;-90
2022/12/30 23:02:33;;;;;;;22.70;11.75;;;;;;;2.21;100.00;101333.87;1757467;81;20936;-89
2022/12/30 23:05:19;;;;;;;22.25;12.43;;;;;;;2.24;100.00;101344.24;1747785;81;21916;-89
2022/12/30 23:08:05;;;;;;;24.75;12.25;;;;;;;2.34;100.00;101346.03;1744087;80;20967;-91
2022/12/30 23:10:49;;;;;;;21.85;11.63;;;;;;;2.43;100.00;101345.34;1744811;81;21442;-88
2022/12/30 23:16:38;;;;;;;;;;;;;;;2.47;100.00;101351.16;1739505;81;21057;-91
2022/12/30 23:19:23;;;;;;;22.13;11.75;;;;;;;2.43;100.00;101346.70;1749233;81;20477;-89
2022/12/30 23:25:00;;;;;;;21.93;12.05;;;;;;;2.46;100.00;101351.67;1701095;84;21381;-89
2022/12/30 23:25:03;;;;;;;25.60;13.38;;;;;;;2.49;100.00;101359.88;1698719;82;21032;-89
2022/12/30 23:27:47;;;;;;;26.12;12.40;;;;;;;2.54;100.00;101359.58;1711119;82;20974;-90
2022/12/30 23:30:32;;;;;;;24.47;12.98;;;;;;;2.56;100.00;101360.20;1732351;82;20986;-90
2022/12/30 23:33:17;;;;;;;22.25;12.18;;;;;;;2.58;100.00;101363.53;1748368;81;21018;-91
2022/12/30 23:36:10;;;;;;;25.32;12.00;;;;;;;2.57;100.00;101370.47;1701719;81;21690;-89
2022/12/30 23:38:56;;;;;;;24.82;11.80;;;;;;;2.55;100.00;101374.74;1762251;81;21442;-91
2022/12/30 23:41:42;;;;;;;23.90;11.78;;;;;;;2.57;100.00;101383.47;1751813;81;21140;-90
2022/12/30 23:44:27;;;;;;;22.25;11.53;;;;;;;2.60;100.00;101383.58;1732334;82;20990;-89
2022/12/30 23:47:11;;;;;;;23.30;11.50;;;;;;;2.60;100.00;101388.98;1713608;82;21020;-90
2022/12/30 23:49:56;;;;;;;26.82;12.20;;;;;;;2.65;100.00;101389.20;1734402;81;21012;-89
2022/12/30 23:52:40;;;;;;;23.10;11.53;;;;;;;2.64;100.00;101394.27;1740869;81;21554;-89
2022/12/30 23:55:25;;;;;;;24.60;12.68;;;;;;;2.66;100.00;101392.72;1714898;82;21435;-89
2022/12/30 23:58:10;;;;;;;22.27;12.25;;;;;;;2.74;100.00;101391.17;1714873;81;21508;-91
